QTR22U KPHX-KSAN
Flight info
| Callsign | QTR22U |
|---|---|
| Flight time | 1h 7m |
| Altitude | 24000 |
| Route | KEENS3 IZZZO IPL BARET5 |
| Aircraft | A332/H-SDE3GHIJ2J3J5M1RVWXY/LB2D1 |
Departure
| Time | 2026-04-26 03:43 |
|---|---|
| Airport | Phoenix Sky Harbor International Airport (KPHX) |
Arrival
| Time | 2026-04-26 04:50 |
|---|---|
| Airport | San Diego International Airport (KSAN) |
| Time | Latitude | Longitude | Altitude | Speed | Heading |
|---|---|---|---|---|---|
| 2026-04-26 03:20 | 33.43689 | -112.00815 | 1134 ft | 0 kts | 270° |
| 2026-04-26 03:30 | 33.43689 | -112.00802 | 1138 ft | 3 kts | 270° |
| 2026-04-26 03:30 | 33.43689 | -112.00780 | 1137 ft | 3 kts | 270° |
| 2026-04-26 03:30 | 33.43686 | -112.00757 | 1138 ft | 3 kts | 314° |
| 2026-04-26 03:31 | 33.43671 | -112.00745 | 1138 ft | 1 kts | 1° |
| 2026-04-26 03:31 | 33.43670 | -112.00745 | 1138 ft | 0 kts | 1° |
| 2026-04-26 03:34 | 33.43687 | -112.00745 | 1139 ft | 6 kts | 1° |
| 2026-04-26 03:34 | 33.43750 | -112.00741 | 1136 ft | 12 kts | 2° |
| 2026-04-26 03:35 | 33.43852 | -112.00735 | 1138 ft | 17 kts | 8° |
| 2026-04-26 03:35 | 33.43900 | -112.00663 | 1136 ft | 12 kts | 78° |
| 2026-04-26 03:35 | 33.43903 | -112.00540 | 1134 ft | 18 kts | 90° |
| 2026-04-26 03:35 | 33.43905 | -112.00368 | 1135 ft | 24 kts | 90° |
| 2026-04-26 03:36 | 33.43905 | -112.00150 | 1138 ft | 29 kts | 90° |
| 2026-04-26 03:36 | 33.43906 | -111.99890 | 1138 ft | 33 kts | 90° |
| 2026-04-26 03:36 | 33.43906 | -111.99598 | 1139 ft | 34 kts | 91° |
| 2026-04-26 03:36 | 33.43903 | -111.99414 | 1135 ft | 10 kts | 90° |
| 2026-04-26 03:37 | 33.43903 | -111.99377 | 1135 ft | 3 kts | 90° |
| 2026-04-26 03:37 | 33.43893 | -111.99331 | 1139 ft | 8 kts | 120° |
| 2026-04-26 03:37 | 33.43840 | -111.99297 | 1137 ft | 11 kts | 170° |
| 2026-04-26 03:37 | 33.43749 | -111.99292 | 1136 ft | 11 kts | 182° |
| 2026-04-26 03:38 | 33.43696 | -111.99267 | 1137 ft | 6 kts | 120° |
| 2026-04-26 03:38 | 33.43657 | -111.99221 | 1139 ft | 1 kts | 150° |
| 2026-04-26 03:38 | 33.43654 | -111.99221 | 1140 ft | 2 kts | 168° |
| 2026-04-26 03:38 | 33.43627 | -111.99225 | 1138 ft | 6 kts | 189° |
| 2026-04-26 03:39 | 33.43563 | -111.99230 | 1137 ft | 12 kts | 182° |
| 2026-04-26 03:39 | 33.43473 | -111.99230 | 1137 ft | 0 kts | 179° |
| 2026-04-26 03:39 | 33.43448 | -111.99230 | 1140 ft | 7 kts | 179° |
| 2026-04-26 03:39 | 33.43376 | -111.99229 | 1138 ft | 12 kts | 179° |
| 2026-04-26 03:40 | 33.43349 | -111.99229 | 1139 ft | 0 kts | 179° |
| 2026-04-26 03:40 | 33.43347 | -111.99229 | 1140 ft | 0 kts | 179° |
| 2026-04-26 03:40 | 33.43322 | -111.99229 | 1138 ft | 7 kts | 180° |
| 2026-04-26 03:40 | 33.43253 | -111.99231 | 1138 ft | 9 kts | 191° |
| 2026-04-26 03:41 | 33.43209 | -111.99263 | 1139 ft | 8 kts | 221° |
| 2026-04-26 03:41 | 33.43162 | -111.99318 | 1142 ft | 11 kts | 224° |
| 2026-04-26 03:41 | 33.43107 | -111.99397 | 1144 ft | 12 kts | 252° |
| 2026-04-26 03:41 | 33.43103 | -111.99437 | 1142 ft | 4 kts | 266° |
| 2026-04-26 03:42 | 33.43101 | -111.99611 | 1142 ft | 49 kts | 271° |
| 2026-04-26 03:42 | 33.43102 | -112.00251 | 1142 ft | 105 kts | 270° |
| 2026-04-26 03:42 | 33.43103 | -112.01359 | 1136 ft | 156 kts | 270° |
| 2026-04-26 03:42 | 33.43108 | -112.02760 | 1461 ft | 174 kts | 270° |
| 2026-04-26 03:43 | 33.43026 | -112.04197 | 2190 ft | 175 kts | 262° |
| 2026-04-26 03:43 | 33.42798 | -112.05652 | 2868 ft | 181 kts | 258° |
| 2026-04-26 03:43 | 33.42517 | -112.07192 | 3429 ft | 197 kts | 257° |
| 2026-04-26 03:43 | 33.42178 | -112.08882 | 3851 ft | 224 kts | 255° |
| 2026-04-26 03:44 | 33.41741 | -112.10797 | 4286 ft | 250 kts | 253° |
| 2026-04-26 03:44 | 33.41204 | -112.12817 | 4993 ft | 256 kts | 250° |
| 2026-04-26 03:44 | 33.40593 | -112.14829 | 5599 ft | 258 kts | 247° |
| 2026-04-26 03:44 | 33.39956 | -112.16846 | 5923 ft | 260 kts | 247° |
| 2026-04-26 03:45 | 33.39377 | -112.18899 | 6128 ft | 262 kts | 254° |
| 2026-04-26 03:45 | 33.39276 | -112.21069 | 6559 ft | 271 kts | 271° |
| 2026-04-26 03:45 | 33.39547 | -112.23310 | 7247 ft | 273 kts | 276° |
| 2026-04-26 03:45 | 33.39888 | -112.25553 | 7991 ft | 273 kts | 276° |
| 2026-04-26 03:46 | 33.40233 | -112.27789 | 8696 ft | 274 kts | 276° |
| 2026-04-26 03:46 | 33.40577 | -112.30050 | 9365 ft | 277 kts | 276° |
| 2026-04-26 03:46 | 33.40920 | -112.32330 | 10017 ft | 279 kts | 276° |
| 2026-04-26 03:47 | 33.41628 | -112.37111 | 10673 ft | 308 kts | 276° |
| 2026-04-26 03:47 | 33.42009 | -112.39703 | 10896 ft | 325 kts | 276° |
| 2026-04-26 03:47 | 33.42411 | -112.42425 | 11168 ft | 338 kts | 276° |
| 2026-04-26 03:47 | 33.42825 | -112.45219 | 11658 ft | 343 kts | 276° |
| 2026-04-26 03:48 | 33.43244 | -112.48039 | 12333 ft | 343 kts | 276° |
| 2026-04-26 03:48 | 33.43660 | -112.50853 | 12974 ft | 344 kts | 275° |
| 2026-04-26 03:48 | 33.44076 | -112.53676 | 13587 ft | 345 kts | 275° |
| 2026-04-26 03:48 | 33.44487 | -112.56475 | 14130 ft | 346 kts | 275° |
| 2026-04-26 03:49 | 33.44883 | -112.59330 | 14638 ft | 347 kts | 272° |
| 2026-04-26 03:49 | 33.45048 | -112.62206 | 15146 ft | 347 kts | 268° |
| 2026-04-26 03:49 | 33.45101 | -112.65106 | 15655 ft | 348 kts | 267° |
| 2026-04-26 03:49 | 33.45135 | -112.68012 | 16175 ft | 350 kts | 266° |
| 2026-04-26 03:50 | 33.45168 | -112.70942 | 16664 ft | 353 kts | 266° |
| 2026-04-26 03:50 | 33.45203 | -112.73884 | 17174 ft | 354 kts | 266° |
| 2026-04-26 03:50 | 33.45150 | -112.76837 | 17663 ft | 354 kts | 261° |
| 2026-04-26 03:50 | 33.44734 | -112.79734 | 18146 ft | 352 kts | 252° |
| 2026-04-26 03:51 | 33.43881 | -112.82471 | 18612 ft | 350 kts | 242° |
| 2026-04-26 03:51 | 33.42683 | -112.85013 | 19050 ft | 350 kts | 238° |
| 2026-04-26 03:51 | 33.41386 | -112.87482 | 19474 ft | 351 kts | 237° |
| 2026-04-26 03:51 | 33.40071 | -112.89951 | 19905 ft | 352 kts | 237° |
| 2026-04-26 03:52 | 33.38751 | -112.92434 | 20320 ft | 353 kts | 237° |
| 2026-04-26 03:52 | 33.37880 | -112.94077 | 20613 ft | 354 kts | 237° |
| 2026-04-26 03:52 | 33.36560 | -112.96571 | 20920 ft | 356 kts | 237° |
| 2026-04-26 03:52 | 33.35235 | -112.99077 | 20977 ft | 356 kts | 237° |
| 2026-04-26 03:53 | 33.33913 | -113.01579 | 20975 ft | 356 kts | 238° |
| 2026-04-26 03:53 | 33.32586 | -113.04090 | 20964 ft | 356 kts | 237° |
| 2026-04-26 03:53 | 33.30830 | -113.07412 | 20955 ft | 356 kts | 237° |
| 2026-04-26 03:53 | 33.29951 | -113.09072 | 20953 ft | 356 kts | 237° |
| 2026-04-26 03:54 | 33.28625 | -113.11577 | 20967 ft | 356 kts | 237° |
| 2026-04-26 03:54 | 33.27302 | -113.14075 | 20955 ft | 355 kts | 237° |
| 2026-04-26 03:54 | 33.25982 | -113.16566 | 20954 ft | 354 kts | 237° |
| 2026-04-26 03:54 | 33.24663 | -113.19052 | 20944 ft | 354 kts | 238° |
| 2026-04-26 03:55 | 33.23348 | -113.21530 | 20955 ft | 353 kts | 238° |
| 2026-04-26 03:55 | 33.22031 | -113.24008 | 20954 ft | 352 kts | 238° |
| 2026-04-26 03:55 | 33.20719 | -113.26477 | 20956 ft | 352 kts | 238° |
| 2026-04-26 03:55 | 33.19403 | -113.28951 | 20954 ft | 352 kts | 238° |
| 2026-04-26 03:56 | 33.18109 | -113.31383 | 20954 ft | 352 kts | 238° |
| 2026-04-26 03:56 | 33.16796 | -113.33848 | 20953 ft | 352 kts | 238° |
| 2026-04-26 03:56 | 33.15481 | -113.36317 | 20953 ft | 352 kts | 238° |
| 2026-04-26 03:56 | 33.14165 | -113.38783 | 20956 ft | 352 kts | 237° |
| 2026-04-26 03:57 | 33.12848 | -113.41250 | 20958 ft | 352 kts | 238° |
| 2026-04-26 03:57 | 33.11534 | -113.43710 | 20966 ft | 352 kts | 237° |
| 2026-04-26 03:57 | 33.10222 | -113.46167 | 20956 ft | 350 kts | 238° |
| 2026-04-26 03:57 | 33.08917 | -113.48613 | 20957 ft | 349 kts | 237° |
| 2026-04-26 03:58 | 33.07610 | -113.51056 | 20959 ft | 349 kts | 237° |
| 2026-04-26 03:58 | 33.06302 | -113.53498 | 20960 ft | 349 kts | 237° |
| 2026-04-26 03:58 | 33.04994 | -113.55939 | 20959 ft | 349 kts | 237° |
| 2026-04-26 03:58 | 33.03687 | -113.58376 | 20958 ft | 349 kts | 237° |
| 2026-04-26 03:59 | 33.02394 | -113.60785 | 20961 ft | 349 kts | 237° |
| 2026-04-26 03:59 | 33.01080 | -113.63233 | 20970 ft | 349 kts | 237° |
| 2026-04-26 03:59 | 32.99771 | -113.65669 | 20965 ft | 349 kts | 237° |
| 2026-04-26 03:59 | 32.98465 | -113.68100 | 20967 ft | 349 kts | 237° |
| 2026-04-26 04:00 | 32.97155 | -113.70534 | 20969 ft | 349 kts | 237° |
| 2026-04-26 04:00 | 32.95845 | -113.72969 | 20973 ft | 349 kts | 237° |
| 2026-04-26 04:00 | 32.94537 | -113.75397 | 20982 ft | 348 kts | 237° |
| 2026-04-26 04:00 | 32.93231 | -113.77822 | 20978 ft | 347 kts | 237° |
| 2026-04-26 04:01 | 32.91941 | -113.80212 | 20981 ft | 347 kts | 237° |
| 2026-04-26 04:01 | 32.90634 | -113.82635 | 21146 ft | 349 kts | 237° |
| 2026-04-26 04:01 | 32.89316 | -113.85075 | 21593 ft | 349 kts | 237° |
| 2026-04-26 04:01 | 32.88005 | -113.87503 | 22060 ft | 349 kts | 237° |
| 2026-04-26 04:02 | 32.86691 | -113.89931 | 22496 ft | 349 kts | 237° |
| 2026-04-26 04:02 | 32.85369 | -113.92375 | 22851 ft | 351 kts | 237° |
| 2026-04-26 04:02 | 32.84044 | -113.94823 | 23221 ft | 353 kts | 237° |
| 2026-04-26 04:02 | 32.82712 | -113.97282 | 23565 ft | 354 kts | 237° |
| 2026-04-26 04:03 | 32.81393 | -113.99717 | 23853 ft | 356 kts | 237° |
| 2026-04-26 04:03 | 32.80119 | -114.02245 | 23982 ft | 357 kts | 241° |
| 2026-04-26 04:03 | 32.79075 | -114.04923 | 23996 ft | 358 kts | 247° |
| 2026-04-26 04:03 | 32.78322 | -114.07751 | 23996 ft | 360 kts | 253° |
| 2026-04-26 04:04 | 32.77880 | -114.10689 | 24003 ft | 362 kts | 259° |
| 2026-04-26 04:04 | 32.77759 | -114.13698 | 24012 ft | 366 kts | 265° |
| 2026-04-26 04:04 | 32.77847 | -114.16724 | 24007 ft | 368 kts | 267° |
| 2026-04-26 04:04 | 32.77978 | -114.19762 | 24008 ft | 369 kts | 267° |
| 2026-04-26 04:05 | 32.78109 | -114.22807 | 24004 ft | 369 kts | 267° |
| 2026-04-26 04:05 | 32.78237 | -114.25850 | 24011 ft | 368 kts | 266° |
| 2026-04-26 04:05 | 32.78361 | -114.28887 | 24012 ft | 368 kts | 266° |
| 2026-04-26 04:05 | 32.78481 | -114.31892 | 24025 ft | 368 kts | 266° |
| 2026-04-26 04:06 | 32.78601 | -114.34922 | 24009 ft | 368 kts | 266° |
| 2026-04-26 04:06 | 32.78840 | -114.37965 | 24005 ft | 372 kts | 272° |
| 2026-04-26 04:06 | 32.79411 | -114.40988 | 24011 ft | 378 kts | 278° |
| 2026-04-26 04:06 | 32.80198 | -114.43980 | 24008 ft | 379 kts | 279° |
| 2026-04-26 04:07 | 32.81023 | -114.46957 | 24007 ft | 380 kts | 280° |
| 2026-04-26 04:07 | 32.81854 | -114.49941 | 24008 ft | 380 kts | 279° |
| 2026-04-26 04:07 | 32.82680 | -114.52920 | 24006 ft | 380 kts | 279° |
| 2026-04-26 04:07 | 32.83504 | -114.55907 | 24007 ft | 380 kts | 279° |
| 2026-04-26 04:08 | 32.84324 | -114.58890 | 24004 ft | 380 kts | 279° |
| 2026-04-26 04:08 | 32.85138 | -114.61852 | 24007 ft | 380 kts | 279° |
| 2026-04-26 04:08 | 32.85955 | -114.64837 | 24024 ft | 380 kts | 279° |
| 2026-04-26 04:08 | 32.86773 | -114.67828 | 24023 ft | 379 kts | 279° |
| 2026-04-26 04:09 | 32.87465 | -114.70838 | 24020 ft | 374 kts | 274° |
| 2026-04-26 04:09 | 32.87819 | -114.73871 | 24019 ft | 367 kts | 266° |
| 2026-04-26 04:09 | 32.87858 | -114.76902 | 24019 ft | 364 kts | 263° |
| 2026-04-26 04:09 | 32.87800 | -114.79903 | 24019 ft | 364 kts | 263° |
| 2026-04-26 04:10 | 32.87728 | -114.82914 | 24014 ft | 364 kts | 263° |
| 2026-04-26 04:10 | 32.87654 | -114.85926 | 24008 ft | 364 kts | 263° |
| 2026-04-26 04:10 | 32.87583 | -114.88899 | 24006 ft | 364 kts | 263° |
| 2026-04-26 04:10 | 32.87513 | -114.91906 | 24003 ft | 364 kts | 263° |
| 2026-04-26 04:11 | 32.87443 | -114.94915 | 24000 ft | 364 kts | 263° |
| 2026-04-26 04:11 | 32.87373 | -114.97922 | 24005 ft | 364 kts | 263° |
| 2026-04-26 04:11 | 32.87303 | -115.00932 | 24024 ft | 363 kts | 263° |
| 2026-04-26 04:11 | 32.87233 | -115.03935 | 24018 ft | 362 kts | 262° |
| 2026-04-26 04:12 | 32.87164 | -115.06920 | 24025 ft | 361 kts | 262° |
| 2026-04-26 04:12 | 32.87091 | -115.09911 | 24015 ft | 363 kts | 262° |
| 2026-04-26 04:12 | 32.87018 | -115.12911 | 23843 ft | 363 kts | 262° |
| 2026-04-26 04:12 | 32.86945 | -115.15914 | 23795 ft | 363 kts | 262° |
| 2026-04-26 04:13 | 32.86873 | -115.18911 | 23799 ft | 363 kts | 262° |
| 2026-04-26 04:13 | 32.86800 | -115.21915 | 23799 ft | 363 kts | 262° |
| 2026-04-26 04:13 | 32.86729 | -115.24916 | 23797 ft | 363 kts | 262° |
| 2026-04-26 04:13 | 32.86658 | -115.27876 | 23799 ft | 363 kts | 262° |
| 2026-04-26 04:14 | 32.86587 | -115.30875 | 23795 ft | 363 kts | 262° |
| 2026-04-26 04:14 | 32.86517 | -115.33871 | 23850 ft | 363 kts | 262° |
| 2026-04-26 04:14 | 32.86455 | -115.36857 | 23805 ft | 360 kts | 262° |
| 2026-04-26 04:14 | 32.86398 | -115.39832 | 23722 ft | 358 kts | 262° |
| 2026-04-26 04:15 | 32.86343 | -115.42792 | 23148 ft | 359 kts | 262° |
| 2026-04-26 04:15 | 32.86285 | -115.45749 | 22626 ft | 356 kts | 262° |
| 2026-04-26 04:15 | 32.85892 | -115.48592 | 22106 ft | 344 kts | 246° |
| 2026-04-26 04:15 | 32.84998 | -115.51197 | 21861 ft | 339 kts | 245° |
| 2026-04-26 04:16 | 32.84170 | -115.53832 | 21815 ft | 341 kts | 248° |
| 2026-04-26 04:16 | 32.83477 | -115.56543 | 21813 ft | 344 kts | 251° |
| 2026-04-26 04:16 | 32.82883 | -115.59299 | 21813 ft | 345 kts | 252° |
| 2026-04-26 04:16 | 32.82350 | -115.62072 | 21463 ft | 344 kts | 253° |
| 2026-04-26 04:17 | 32.81847 | -115.64876 | 20857 ft | 347 kts | 254° |
| 2026-04-26 04:17 | 32.81371 | -115.67646 | 20289 ft | 346 kts | 255° |
| 2026-04-26 04:17 | 32.80894 | -115.70486 | 19800 ft | 345 kts | 255° |
| 2026-04-26 04:17 | 32.80428 | -115.73279 | 19303 ft | 343 kts | 255° |
| 2026-04-26 04:18 | 32.79974 | -115.76017 | 18954 ft | 340 kts | 255° |
| 2026-04-26 04:18 | 32.79517 | -115.78779 | 18848 ft | 340 kts | 255° |
| 2026-04-26 04:18 | 32.79057 | -115.81549 | 18835 ft | 342 kts | 255° |
| 2026-04-26 04:18 | 32.78620 | -115.84331 | 18829 ft | 343 kts | 257° |
| 2026-04-26 04:19 | 32.78339 | -115.87155 | 18827 ft | 345 kts | 259° |
| 2026-04-26 04:19 | 32.78121 | -115.89998 | 18829 ft | 345 kts | 260° |
| 2026-04-26 04:19 | 32.77913 | -115.92835 | 18495 ft | 345 kts | 260° |
| 2026-04-26 04:19 | 32.77702 | -115.95693 | 17823 ft | 347 kts | 261° |
| 2026-04-26 04:20 | 32.77491 | -115.98537 | 17355 ft | 344 kts | 261° |
| 2026-04-26 04:20 | 32.77284 | -116.01326 | 16869 ft | 342 kts | 261° |
| 2026-04-26 04:20 | 32.77073 | -116.04135 | 16342 ft | 340 kts | 261° |
| 2026-04-26 04:20 | 32.76862 | -116.06936 | 15835 ft | 339 kts | 261° |
| 2026-04-26 04:21 | 32.76652 | -116.09720 | 15323 ft | 338 kts | 261° |
| 2026-04-26 04:21 | 32.76441 | -116.12493 | 14799 ft | 337 kts | 261° |
| 2026-04-26 04:21 | 32.76229 | -116.15268 | 14321 ft | 336 kts | 261° |
| 2026-04-26 04:21 | 32.76021 | -116.18005 | 14068 ft | 328 kts | 261° |
| 2026-04-26 04:22 | 32.75820 | -116.20667 | 13943 ft | 318 kts | 260° |
| 2026-04-26 04:22 | 32.75623 | -116.23244 | 13811 ft | 307 kts | 260° |
| 2026-04-26 04:22 | 32.75434 | -116.25701 | 13657 ft | 298 kts | 260° |
| 2026-04-26 04:22 | 32.75244 | -116.28136 | 13601 ft | 286 kts | 261° |
| 2026-04-26 04:23 | 32.75068 | -116.30423 | 13486 ft | 276 kts | 261° |
| 2026-04-26 04:23 | 32.74896 | -116.32661 | 13329 ft | 267 kts | 261° |
| 2026-04-26 04:23 | 32.74725 | -116.34841 | 13059 ft | 263 kts | 261° |
| 2026-04-26 04:23 | 32.74556 | -116.37000 | 12736 ft | 262 kts | 261° |
| 2026-04-26 04:24 | 32.74388 | -116.39127 | 12416 ft | 261 kts | 261° |
| 2026-04-26 04:24 | 32.74221 | -116.41264 | 12130 ft | 259 kts | 261° |
| 2026-04-26 04:24 | 32.74055 | -116.43388 | 11803 ft | 257 kts | 261° |
| 2026-04-26 04:24 | 32.73890 | -116.45498 | 11486 ft | 255 kts | 260° |
| 2026-04-26 04:25 | 32.73721 | -116.47625 | 10902 ft | 264 kts | 260° |
| 2026-04-26 04:25 | 32.73540 | -116.49866 | 10279 ft | 285 kts | 260° |
| 2026-04-26 04:25 | 32.73338 | -116.52300 | 9985 ft | 304 kts | 260° |
| 2026-04-26 04:25 | 32.73125 | -116.54820 | 9922 ft | 305 kts | 260° |
| 2026-04-26 04:26 | 32.72917 | -116.57250 | 9949 ft | 286 kts | 261° |
| 2026-04-26 04:26 | 32.72696 | -116.59610 | 9786 ft | 291 kts | 261° |
| 2026-04-26 04:26 | 32.72450 | -116.62041 | 9037 ft | 302 kts | 261° |
| 2026-04-26 04:26 | 32.72184 | -116.64471 | 8710 ft | 296 kts | 261° |
| 2026-04-26 04:27 | 32.71917 | -116.66850 | 8568 ft | 285 kts | 261° |
| 2026-04-26 04:27 | 32.71656 | -116.69131 | 8389 ft | 271 kts | 261° |
| 2026-04-26 04:27 | 32.71405 | -116.71282 | 8147 ft | 254 kts | 261° |
| 2026-04-26 04:27 | 32.71163 | -116.73295 | 7938 ft | 239 kts | 261° |
| 2026-04-26 04:28 | 32.70925 | -116.75217 | 7576 ft | 232 kts | 260° |
| 2026-04-26 04:28 | 32.70809 | -116.77123 | 7098 ft | 231 kts | 267° |
| 2026-04-26 04:28 | 32.70774 | -116.79037 | 6580 ft | 232 kts | 270° |
| 2026-04-26 04:28 | 32.70743 | -116.80955 | 6116 ft | 232 kts | 266° |
| 2026-04-26 04:29 | 32.70427 | -116.82833 | 5625 ft | 232 kts | 253° |
| 2026-04-26 04:29 | 32.69907 | -116.84615 | 5181 ft | 231 kts | 250° |
| 2026-04-26 04:29 | 32.69344 | -116.86393 | 4988 ft | 227 kts | 250° |
| 2026-04-26 04:29 | 32.68917 | -116.88167 | 4975 ft | 222 kts | 263° |
| 2026-04-26 04:30 | 32.68832 | -116.89987 | 4978 ft | 216 kts | 269° |
| 2026-04-26 04:30 | 32.68919 | -116.91715 | 4968 ft | 205 kts | 276° |
| 2026-04-26 04:30 | 32.69147 | -116.93382 | 4541 ft | 208 kts | 278° |
| 2026-04-26 04:30 | 32.69405 | -116.95152 | 4065 ft | 226 kts | 278° |
| 2026-04-26 04:31 | 32.69690 | -116.97027 | 3976 ft | 233 kts | 279° |
| 2026-04-26 04:31 | 32.69982 | -116.98912 | 3966 ft | 227 kts | 279° |
| 2026-04-26 04:31 | 32.70268 | -117.00693 | 4239 ft | 210 kts | 279° |
| 2026-04-26 04:31 | 32.70535 | -117.02339 | 4794 ft | 204 kts | 279° |
| 2026-04-26 04:32 | 32.70717 | -117.04012 | 5412 ft | 203 kts | 269° |
| 2026-04-26 04:32 | 32.70901 | -117.05690 | 5854 ft | 213 kts | 290° |
| 2026-04-26 04:32 | 32.71852 | -117.07170 | 5976 ft | 246 kts | 320° |
| 2026-04-26 04:32 | 32.73513 | -117.08020 | 5973 ft | 276 kts | 348° |
| 2026-04-26 04:33 | 32.75470 | -117.07948 | 5978 ft | 286 kts | 7° |
| 2026-04-26 04:33 | 32.77431 | -117.07446 | 5980 ft | 289 kts | 11° |
| 2026-04-26 04:33 | 32.79387 | -117.06881 | 5980 ft | 289 kts | 11° |
| 2026-04-26 04:33 | 32.81313 | -117.06318 | 5982 ft | 289 kts | 11° |
| 2026-04-26 04:34 | 32.83244 | -117.05604 | 5970 ft | 292 kts | 25° |
| 2026-04-26 04:34 | 32.84815 | -117.04087 | 5972 ft | 295 kts | 51° |
| 2026-04-26 04:34 | 32.85696 | -117.01891 | 5975 ft | 296 kts | 78° |
| 2026-04-26 04:34 | 32.85767 | -116.99460 | 5972 ft | 295 kts | 97° |
| 2026-04-26 04:35 | 32.85478 | -116.97040 | 5970 ft | 296 kts | 101° |
| 2026-04-26 04:35 | 32.85131 | -116.94622 | 5972 ft | 297 kts | 101° |
| 2026-04-26 04:35 | 32.84782 | -116.92198 | 5972 ft | 298 kts | 101° |
| 2026-04-26 04:35 | 32.84433 | -116.89802 | 5972 ft | 297 kts | 101° |
| 2026-04-26 04:36 | 32.84078 | -116.87381 | 5971 ft | 297 kts | 101° |
| 2026-04-26 04:36 | 32.83728 | -116.84953 | 5965 ft | 298 kts | 101° |
| 2026-04-26 04:36 | 32.83317 | -116.82532 | 5967 ft | 298 kts | 110° |
| 2026-04-26 04:36 | 32.82285 | -116.80450 | 5967 ft | 291 kts | 137° |
| 2026-04-26 04:37 | 32.80638 | -116.79137 | 5973 ft | 283 kts | 164° |
| 2026-04-26 04:37 | 32.78724 | -116.78801 | 5969 ft | 277 kts | 185° |
| 2026-04-26 04:37 | 32.76822 | -116.78971 | 5965 ft | 277 kts | 193° |
| 2026-04-26 04:37 | 32.75129 | -116.79909 | 5960 ft | 267 kts | 224° |
| 2026-04-26 04:38 | 32.74132 | -116.81724 | 5816 ft | 266 kts | 254° |
| 2026-04-26 04:38 | 32.73963 | -116.83945 | 5264 ft | 276 kts | 269° |
| 2026-04-26 04:38 | 32.73641 | -116.86177 | 4988 ft | 272 kts | 246° |
| 2026-04-26 04:38 | 32.72522 | -116.87914 | 4971 ft | 264 kts | 219° |
| 2026-04-26 04:39 | 32.70898 | -116.88953 | 4975 ft | 269 kts | 204° |
| 2026-04-26 04:39 | 32.69135 | -116.89745 | 4979 ft | 272 kts | 202° |
| 2026-04-26 04:39 | 32.67351 | -116.90505 | 4980 ft | 273 kts | 202° |
| 2026-04-26 04:39 | 32.65548 | -116.91090 | 5129 ft | 275 kts | 186° |
| 2026-04-26 04:40 | 32.63642 | -116.90727 | 5589 ft | 286 kts | 159° |
| 2026-04-26 04:40 | 32.62003 | -116.89380 | 5927 ft | 291 kts | 134° |
| 2026-04-26 04:40 | 32.60969 | -116.87318 | 5998 ft | 294 kts | 110° |
| 2026-04-26 04:40 | 32.60465 | -116.84954 | 6000 ft | 298 kts | 102° |
| 2026-04-26 04:41 | 32.60085 | -116.82528 | 5974 ft | 299 kts | 101° |
| 2026-04-26 04:41 | 32.59748 | -116.80094 | 6002 ft | 301 kts | 95° |
| 2026-04-26 04:41 | 32.59944 | -116.77640 | 6019 ft | 300 kts | 75° |
| 2026-04-26 04:41 | 32.60526 | -116.75263 | 5995 ft | 300 kts | 71° |
| 2026-04-26 04:42 | 32.61189 | -116.72913 | 5989 ft | 300 kts | 65° |
| 2026-04-26 04:42 | 32.62362 | -116.70909 | 5976 ft | 294 kts | 39° |
| 2026-04-26 04:42 | 32.63471 | -116.70010 | 5977 ft | 289 kts | 22° |
| 2026-04-26 04:42 | 32.65987 | -116.68995 | 5972 ft | 286 kts | 11° |
| 2026-04-26 04:43 | 32.67264 | -116.68594 | 5967 ft | 286 kts | 11° |
| 2026-04-26 04:43 | 32.69196 | -116.67999 | 5962 ft | 287 kts | 11° |
| 2026-04-26 04:43 | 32.71143 | -116.67477 | 5960 ft | 285 kts | 1° |
| 2026-04-26 04:43 | 32.73058 | -116.67771 | 5963 ft | 275 kts | 334° |
| 2026-04-26 04:44 | 32.74600 | -116.69026 | 5961 ft | 267 kts | 308° |
| 2026-04-26 04:44 | 32.75437 | -116.70920 | 5958 ft | 263 kts | 281° |
| 2026-04-26 04:44 | 32.75432 | -116.73078 | 5966 ft | 263 kts | 257° |
| 2026-04-26 04:44 | 32.74906 | -116.75181 | 5970 ft | 265 kts | 251° |
| 2026-04-26 04:45 | 32.74292 | -116.77256 | 5967 ft | 266 kts | 251° |
| 2026-04-26 04:45 | 32.73659 | -116.79322 | 5967 ft | 268 kts | 251° |
| 2026-04-26 04:45 | 32.73019 | -116.81405 | 5845 ft | 269 kts | 251° |
| 2026-04-26 04:45 | 32.72382 | -116.83516 | 5454 ft | 271 kts | 251° |
| 2026-04-26 04:46 | 32.71760 | -116.85591 | 5254 ft | 264 kts | 251° |
| 2026-04-26 04:46 | 32.71152 | -116.87628 | 4998 ft | 260 kts | 251° |
| 2026-04-26 04:46 | 32.70559 | -116.89645 | 4574 ft | 265 kts | 251° |
| 2026-04-26 04:46 | 32.69951 | -116.91714 | 4152 ft | 266 kts | 251° |
| 2026-04-26 04:47 | 32.69353 | -116.93792 | 3861 ft | 264 kts | 255° |
| 2026-04-26 04:47 | 32.69209 | -116.95934 | 3787 ft | 262 kts | 274° |
| 2026-04-26 04:47 | 32.69526 | -116.98073 | 3783 ft | 264 kts | 281° |
| 2026-04-26 04:47 | 32.70065 | -117.00161 | 3771 ft | 265 kts | 288° |
| 2026-04-26 04:48 | 32.70568 | -117.04440 | 3560 ft | 262 kts | 273° |
| 2026-04-26 04:48 | 32.70706 | -117.06605 | 3011 ft | 260 kts | 274° |
| 2026-04-26 04:48 | 32.70903 | -117.08654 | 2658 ft | 240 kts | 280° |
| 2026-04-26 04:49 | 32.71284 | -117.10541 | 1947 ft | 234 kts | 285° |
| 2026-04-26 04:49 | 32.71769 | -117.12388 | 1165 ft | 233 kts | 286° |
| 2026-04-26 04:49 | 32.72204 | -117.14196 | 731 ft | 222 kts | 286° |
| 2026-04-26 04:49 | 32.72604 | -117.15912 | 414 ft | 209 kts | 287° |
| 2026-04-26 04:50 | 32.72996 | -117.17537 | 141 ft | 201 kts | 288° |
| 2026-04-26 04:50 | 32.73350 | -117.18958 | 29 ft | 129 kts | 286° |
| 2026-04-26 04:50 | 32.73517 | -117.19617 | 32 ft | 53 kts | 284° |
| 2026-04-26 04:50 | 32.73501 | -117.19864 | 31 ft | 7 kts | 248° |
| 2026-04-26 04:51 | 32.73497 | -117.19869 | 31 ft | 0 kts | 230° |
| 2026-04-26 04:53 | 32.73495 | -117.19873 | 31 ft | 4 kts | 233° |
| 2026-04-26 04:54 | 32.73484 | -117.19924 | 30 ft | 9 kts | 274° |
| 2026-04-26 04:54 | 32.73512 | -117.20041 | 29 ft | 21 kts | 286° |
| 2026-04-26 04:54 | 32.73559 | -117.20238 | 28 ft | 29 kts | 286° |
| 2026-04-26 04:54 | 32.73584 | -117.20400 | 26 ft | 7 kts | 253° |
| 2026-04-26 04:55 | 32.73516 | -117.20510 | 25 ft | 26 kts | 229° |
| 2026-04-26 04:55 | 32.73404 | -117.20564 | 28 ft | 1 kts | 166° |
| 2026-04-26 04:55 | 32.73401 | -117.20558 | 29 ft | 0 kts | 138° |
| 2026-04-26 04:55 | 32.73386 | -117.20516 | 27 ft | 4 kts | 94° |
| 2026-04-26 04:56 | 32.73390 | -117.20472 | 27 ft | 3 kts | 85° |
| 2026-04-26 04:56 | 32.73390 | -117.20471 | 27 ft | 0 kts | 85° |